Terminal Aerodrome Forecast
Issued by NWS

Home | Current Version | Previous Version | Graphics & Text | Print | Product List | Glossary On
Versions: 1 2 3 4 5 6 7 8 9 10 11 12 13 14
458
FTUS43 KABR 040520
TAFPIR
TAF
KPIR 040520Z 0406/0506 26007KT P6SM SCT100 BKN150
     FM041100 29008KT P6SM SCT150
     FM042100 17006KT P6SM OVC120=

USA.gov is the U.S. government's official web portal to all federal, state and local government web resources and services.